Time;durP1;ratioP1;P1;durP2;ratioP2;P2;SDS_P1;SDS_P2;PMS_P1;PMS_P2;Temp;Humidity;BMP_temperature;BMP_pressure;BME280_temperature;BME280_humidity;BME280_pressure;Samples;Min_cycle;Max_cycle;Signal;HPM_P1;HPM_P2
2023/07/09 00:01:46;;;;;;;4.03;3.53;;;;;;;;;;5014447;28;20482;-54
2023/07/09 00:04:14;;;;;;;3.80;3.20;;;;;;;;;;5014662;28;20546;-53
2023/07/09 00:06:41;;;;;;;3.80;3.20;;;;;;;;;;5014291;28;20461;-49
2023/07/09 00:09:13;;;;;;;4.23;3.83;;;;;;;;;;5014190;28;20545;-55
2023/07/09 00:11:41;;;;;;;3.80;3.40;;;;;;;;;;5014051;28;20458;-50
2023/07/09 00:14:10;;;;;;;3.20;3.00;;;;;;;;;;5014310;28;20482;-55
2023/07/09 00:16:38;;;;;;;6.50;4.03;;;;;;;;;;5014095;28;20903;-54
2023/07/09 00:19:05;;;;;;;4.30;3.57;;;;;;;;;;5014054;28;20887;-54
2023/07/09 00:21:34;;;;;;;4.43;4.00;;;;;;;;;;5013800;28;20541;-49
2023/07/09 00:24:04;;;;;;;3.60;3.30;;;;;;;;;;5013832;28;20497;-53
2023/07/09 00:26:31;;;;;;;3.77;3.40;;;;;;;;;;5012835;28;20517;-55
2023/07/09 00:28:58;;;;;;;4.33;3.93;;;;;;;;;;5014075;28;20954;-53
2023/07/09 00:31:27;;;;;;;4.00;3.70;;;;;;;;;;5013693;28;20451;-52
2023/07/09 00:33:55;;;;;;;3.93;3.63;;;;;;;;;;5013623;28;20484;-51
2023/07/09 00:36:27;;;;;;;3.43;3.13;;;;;;;;;;5013624;28;20543;-53
2023/07/09 00:38:54;;;;;;;4.50;3.53;;;;;;;;;;5013582;28;20457;-52
2023/07/09 00:41:22;;;;;;;5.50;3.70;;;;;;;;;;5013847;28;20871;-51
2023/07/09 00:43:49;;;;;;;3.40;3.10;;;;;;;;;;5013427;28;20453;-51
2023/07/09 00:46:37;;;;;;;6.73;3.50;;;;;;;;;;5013726;28;20946;-55
2023/07/09 00:49:08;;;;;;;3.70;3.40;;;;;;;;;;5013481;28;20549;-53
2023/07/09 00:51:41;;;;;;;4.77;3.97;;;;;;;;;;5013384;28;20452;-55
2023/07/09 00:54:10;;;;;;;6.97;3.70;;;;;;;;;;5013525;28;20540;-55
2023/07/09 00:56:40;;;;;;;4.00;3.70;;;;;;;;;;5013225;28;20489;-54
2023/07/09 00:59:08;;;;;;;5.20;3.40;;;;;;;;;;5013373;28;20929;-54
2023/07/09 01:01:35;;;;;;;3.87;3.63;;;;;;;;;;5013356;28;20537;-55
2023/07/09 01:04:04;;;;;;;4.20;3.80;;;;;;;;;;5013160;28;20449;-55
2023/07/09 01:06:35;;;;;;;3.90;3.60;;;;;;;;;;5013377;28;20453;-56
2023/07/09 01:09:03;;;;;;;4.10;3.70;;;;;;;;;;5013416;28;20461;-56
2023/07/09 01:11:30;;;;;;;3.80;3.50;;;;;;;;;;5013371;28;20580;-56
2023/07/09 01:13:58;;;;;;;3.87;3.67;;;;;;;;;;5013078;28;20469;-55
2023/07/09 01:16:26;;;;;;;4.53;3.57;;;;;;;;;;5012902;28;20456;-56
2023/07/09 01:18:53;;;;;;;4.50;4.10;;;;;;;;;;5013283;28;20545;-53
2023/07/09 01:21:22;;;;;;;7.50;4.20;;;;;;;;;;5013276;28;20548;-54
2023/07/09 01:23:51;;;;;;;4.57;4.23;;;;;;;;;;5013109;28;20443;-56
2023/07/09 01:26:19;;;;;;;4.73;3.80;;;;;;;;;;5012922;28;20961;-55
2023/07/09 01:28:46;;;;;;;3.87;3.57;;;;;;;;;;5012925;28;20493;-55
2023/07/09 01:31:14;;;;;;;4.50;4.20;;;;;;;;;;5012906;28;20457;-56
2023/07/09 01:33:44;;;;;;;4.20;3.80;;;;;;;;;;5013111;28;20445;-55
2023/07/09 01:36:13;;;;;;;3.80;3.50;;;;;;;;;;5013244;28;20450;-55
2023/07/09 01:38:41;;;;;;;4.30;4.00;;;;;;;;;;5016273;28;20492;-55
2023/07/09 01:41:13;;;;;;;4.30;3.60;;;;;;;;;;5016908;28;20452;-55
2023/07/09 01:43:41;;;;;;;3.50;3.20;;;;;;;;;;5016858;28;20529;-53
2023/07/09 01:46:08;;;;;;;4.77;4.37;;;;;;;;;;5017071;28;20457;-56
2023/07/09 01:48:40;;;;;;;5.33;3.77;;;;;;;;;;5016873;28;20458;-55
2023/07/09 01:51:08;;;;;;;4.20;3.90;;;;;;;;;;5016859;28;20532;-56
2023/07/09 01:53:36;;;;;;;4.03;3.73;;;;;;;;;;5016776;28;20559;-56
2023/07/09 01:56:04;;;;;;;4.50;4.20;;;;;;;;;;5016826;28;20488;-54
2023/07/09 01:58:31;;;;;;;3.70;3.47;;;;;;;;;;5016730;28;20489;-55
2023/07/09 02:00:58;;;;;;;4.03;3.73;;;;;;;;;;5016436;28;20457;-55
2023/07/09 02:03:25;;;;;;;4.00;3.60;;;;;;;;;;5016649;28;20624;-56
2023/07/09 02:05:52;;;;;;;3.87;3.57;;;;;;;;;;5016504;28;20454;-55
2023/07/09 02:08:19;;;;;;;5.47;3.90;;;;;;;;;;5016335;28;20968;-55
2023/07/09 02:10:47;;;;;;;4.70;4.30;;;;;;;;;;5016253;28;20544;-55
2023/07/09 02:13:15;;;;;;;6.33;4.40;;;;;;;;;;5016452;28;20503;-57
2023/07/09 02:15:43;;;;;;;4.80;4.40;;;;;;;;;;5016469;28;20486;-54
2023/07/09 02:18:10;;;;;;;5.03;3.97;;;;;;;;;;5016348;28;21020;-54
2023/07/09 02:20:37;;;;;;;4.33;3.90;;;;;;;;;;5016173;28;20548;-53
2023/07/09 02:23:04;;;;;;;6.60;3.90;;;;;;;;;;5016177;28;20458;-55
2023/07/09 02:25:31;;;;;;;5.10;3.77;;;;;;;;;;5016358;28;20453;-55
2023/07/09 02:27:58;;;;;;;3.80;3.37;;;;;;;;;;5016170;28;21021;-55
2023/07/09 02:30:26;;;;;;;4.23;3.90;;;;;;;;;;5016162;28;20552;-53
2023/07/09 02:32:54;;;;;;;4.30;3.90;;;;;;;;;;5016176;28;20918;-55
2023/07/09 02:35:21;;;;;;;4.70;4.40;;;;;;;;;;5015933;28;20459;-56
2023/07/09 02:37:49;;;;;;;4.37;3.97;;;;;;;;;;5015830;28;20505;-55
2023/07/09 02:40:16;;;;;;;7.43;4.23;;;;;;;;;;5016037;28;20557;-54
2023/07/09 02:42:43;;;;;;;4.80;4.40;;;;;;;;;;5015875;28;20548;-56
2023/07/09 02:45:11;;;;;;;4.20;3.90;;;;;;;;;;5015931;28;20545;-55
2023/07/09 02:47:39;;;;;;;4.37;3.80;;;;;;;;;;5015657;28;20589;-55
2023/07/09 02:50:07;;;;;;;4.73;4.30;;;;;;;;;;5014466;28;20860;-53
2023/07/09 02:52:33;;;;;;;4.33;3.77;;;;;;;;;;5015805;28;20497;-55
2023/07/09 02:55:00;;;;;;;4.20;3.90;;;;;;;;;;5015648;28;20545;-53
2023/07/09 02:57:27;;;;;;;3.90;3.60;;;;;;;;;;5015253;28;20536;-55
2023/07/09 02:59:54;;;;;;;4.93;4.53;;;;;;;;;;5015323;28;20510;-55
2023/07/09 03:02:21;;;;;;;6.90;4.40;;;;;;;;;;5015392;28;20541;-52
2023/07/09 03:04:49;;;;;;;4.20;3.80;;;;;;;;;;5015215;28;20695;-55
2023/07/09 03:07:16;;;;;;;4.23;3.83;;;;;;;;;;5015443;28;20510;-53
2023/07/09 03:09:43;;;;;;;4.20;3.90;;;;;;;;;;5015355;28;20459;-56
2023/07/09 03:12:10;;;;;;;4.40;4.10;;;;;;;;;;5015211;28;20505;-52
2023/07/09 03:14:38;;;;;;;4.77;4.30;;;;;;;;;;5015244;28;20540;-53
2023/07/09 03:17:05;;;;;;;6.03;4.00;;;;;;;;;;5015053;28;20794;-55
2023/07/09 03:19:32;;;;;;;4.70;4.30;;;;;;;;;;5014983;28;20893;-54
2023/07/09 03:22:00;;;;;;;4.80;4.33;;;;;;;;;;5015287;28;20457;-55
2023/07/09 03:24:27;;;;;;;4.20;3.90;;;;;;;;;;5014857;28;20945;-54
2023/07/09 03:26:54;;;;;;;5.37;4.97;;;;;;;;;;5014885;28;20964;-55
2023/07/09 03:29:21;;;;;;;6.10;4.50;;;;;;;;;;5014961;28;20547;-53
2023/07/09 03:31:49;;;;;;;4.70;4.33;;;;;;;;;;5014820;28;20877;-51
2023/07/09 03:34:16;;;;;;;5.03;4.63;;;;;;;;;;5015103;28;20484;-51
2023/07/09 03:36:43;;;;;;;4.73;4.43;;;;;;;;;;5014621;28;20552;-52
2023/07/09 03:39:11;;;;;;;4.33;3.93;;;;;;;;;;5014712;28;20577;-52
2023/07/09 03:41:38;;;;;;;5.00;4.60;;;;;;;;;;5014698;28;20457;-54
2023/07/09 03:44:05;;;;;;;5.07;4.67;;;;;;;;;;5014610;28;20458;-54
2023/07/09 03:46:32;;;;;;;4.73;4.40;;;;;;;;;;5014434;28;20940;-53
2023/07/09 03:49:00;;;;;;;6.97;4.40;;;;;;;;;;5014700;28;20544;-55
2023/07/09 03:51:27;;;;;;;4.97;4.60;;;;;;;;;;5014566;28;20451;-50
2023/07/09 03:53:54;;;;;;;5.47;4.37;;;;;;;;;;5014515;28;20955;-54
2023/07/09 03:56:22;;;;;;;4.40;4.10;;;;;;;;;;5014319;28;20810;-52
2023/07/09 03:58:49;;;;;;;5.20;4.80;;;;;;;;;;5014012;28;20536;-53
2023/07/09 04:01:16;;;;;;;5.27;4.80;;;;;;;;;;5014301;28;20543;-54
2023/07/09 04:03:44;;;;;;;4.40;4.07;;;;;;;;;;5014358;28;20447;-53
2023/07/09 04:06:11;;;;;;;5.33;4.93;;;;;;;;;;5014435;28;20551;-55
2023/07/09 04:08:38;;;;;;;6.93;4.93;;;;;;;;;;5014225;28;20548;-55
2023/07/09 04:11:05;;;;;;;5.33;4.93;;;;;;;;;;5014092;28;20495;-55
2023/07/09 04:13:33;;;;;;;5.47;4.97;;;;;;;;;;5013987;28;20488;-53
2023/07/09 04:16:00;;;;;;;5.80;4.47;;;;;;;;;;5014116;28;21018;-56
2023/07/09 04:18:27;;;;;;;5.17;4.77;;;;;;;;;;5013989;28;20568;-54
2023/07/09 04:20:54;;;;;;;4.80;4.43;;;;;;;;;;5014344;28;20476;-54
2023/07/09 04:23:21;;;;;;;4.70;4.30;;;;;;;;;;5013967;28;20477;-54
2023/07/09 04:25:48;;;;;;;5.07;4.57;;;;;;;;;;5013866;28;20455;-55
2023/07/09 04:28:16;;;;;;;5.50;5.10;;;;;;;;;;5013822;28;20480;-56
2023/07/09 04:30:48;;;;;;;7.03;5.20;;;;;;;;;;5013885;28;20453;-55
2023/07/09 04:33:17;;;;;;;5.50;5.10;;;;;;;;;;5014252;28;20541;-55
2023/07/09 04:35:44;;;;;;;5.23;4.93;;;;;;;;;;5013757;28;20484;-52
2023/07/09 04:38:11;;;;;;;5.00;4.70;;;;;;;;;;5013616;28;20579;-56
2023/07/09 04:40:38;;;;;;;4.57;4.07;;;;;;;;;;5013608;28;20567;-55
2023/07/09 04:43:05;;;;;;;5.33;4.10;;;;;;;;;;5013742;28;20455;-54
2023/07/09 04:45:32;;;;;;;4.70;4.30;;;;;;;;;;5013680;28;20891;-54
2023/07/09 04:48:00;;;;;;;5.60;5.10;;;;;;;;;;5013541;28;20489;-51
2023/07/09 04:50:27;;;;;;;9.63;5.17;;;;;;;;;;5013456;28;20886;-54
2023/07/09 04:52:54;;;;;;;8.80;4.60;;;;;;;;;;5013307;28;20489;-51
2023/07/09 04:55:21;;;;;;;4.77;4.47;;;;;;;;;;5013646;28;20548;-56
2023/07/09 04:57:48;;;;;;;5.33;4.83;;;;;;;;;;5013133;28;20478;-54
2023/07/09 05:00:15;;;;;;;4.43;4.10;;;;;;;;;;5013401;28;20889;-53
2023/07/09 05:02:42;;;;;;;5.67;5.17;;;;;;;;;;5013338;28;20450;-52
2023/07/09 05:05:11;;;;;;;6.30;5.17;;;;;;;;;;5013197;28;20541;-53
2023/07/09 05:07:38;;;;;;;6.43;4.70;;;;;;;;;;5013085;28;20460;-55
2023/07/09 05:10:06;;;;;;;4.00;3.80;;;;;;;;;;5013437;28;20478;-56
2023/07/09 05:12:33;;;;;;;4.00;3.70;;;;;;;;;;5012722;28;20491;-56
2023/07/09 05:15:00;;;;;;;5.20;4.70;;;;;;;;;;5013286;28;20462;-51
2023/07/09 05:17:27;;;;;;;3.70;3.40;;;;;;;;;;5013076;28;20537;-55
2023/07/09 05:19:54;;;;;;;4.83;4.27;;;;;;;;;;5013164;28;20573;-54
2023/07/09 05:22:22;;;;;;;4.80;4.50;;;;;;;;;;5013051;28;20554;-54
2023/07/09 05:24:49;;;;;;;4.67;4.27;;;;;;;;;;5013192;28;20453;-49
2023/07/09 05:27:16;;;;;;;4.73;3.93;;;;;;;;;;5013122;28;20562;-53
2023/07/09 05:29:43;;;;;;;4.20;3.80;;;;;;;;;;5013082;28;20858;-48
2023/07/09 05:32:10;;;;;;;5.17;3.93;;;;;;;;;;5013075;28;20492;-51
2023/07/09 05:34:37;;;;;;;4.60;4.27;;;;;;;;;;5012927;28;20490;-51
2023/07/09 05:37:04;;;;;;;5.63;4.00;;;;;;;;;;5013110;28;20993;-50
2023/07/09 05:39:32;;;;;;;4.23;3.93;;;;;;;;;;5013007;28;20486;-52
2023/07/09 05:41:59;;;;;;;4.63;4.30;;;;;;;;;;5013032;28;20545;-50
2023/07/09 05:44:26;;;;;;;3.80;3.60;;;;;;;;;;5012963;28;20486;-52
2023/07/09 05:46:53;;;;;;;3.37;3.17;;;;;;;;;;5012869;28;20545;-50
2023/07/09 05:49:20;;;;;;;3.73;3.53;;;;;;;;;;5012714;28;20938;-52
2023/07/09 05:51:47;;;;;;;4.00;3.80;;;;;;;;;;5013032;28;20450;-52
2023/07/09 05:54:13;;;;;;;5.30;3.70;;;;;;;;;;5012928;28;20454;-52
2023/07/09 05:56:42;;;;;;;5.90;4.10;;;;;;;;;;5012742;28;20950;-53
2023/07/09 05:59:09;;;;;;;4.00;3.70;;;;;;;;;;5012768;28;20486;-52
2023/07/09 06:01:37;;;;;;;3.90;3.60;;;;;;;;;;5012627;28;20458;-52
2023/07/09 06:04:04;;;;;;;4.10;3.80;;;;;;;;;;5012891;28;20462;-52
2023/07/09 06:06:31;;;;;;;4.40;3.60;;;;;;;;;;5012818;28;20512;-55
2023/07/09 06:08:58;;;;;;;3.80;3.50;;;;;;;;;;5012749;28;20450;-53
2023/07/09 06:11:25;;;;;;;3.53;3.00;;;;;;;;;;5012787;28;20549;-51
2023/07/09 06:13:53;;;;;;;3.53;3.33;;;;;;;;;;5012603;28;20446;-51
2023/07/09 06:16:21;;;;;;;4.10;3.40;;;;;;;;;;5012489;28;20452;-52
2023/07/09 06:18:48;;;;;;;4.13;3.80;;;;;;;;;;5012722;28;20962;-53
2023/07/09 06:21:15;;;;;;;3.43;3.20;;;;;;;;;;5012715;28;20545;-55
2023/07/09 06:23:41;;;;;;;4.60;3.90;;;;;;;;;;5014004;28;20456;-52
2023/07/09 06:26:08;;;;;;;3.40;3.17;;;;;;;;;;5016172;28;20542;-56
2023/07/09 06:28:35;;;;;;;4.40;4.00;;;;;;;;;;5016035;28;20493;-56
2023/07/09 06:31:04;;;;;;;4.20;3.40;;;;;;;;;;5016053;28;20453;-55
2023/07/09 06:33:31;;;;;;;3.80;3.50;;;;;;;;;;5016002;28;20544;-55
2023/07/09 06:36:01;;;;;;;4.47;4.17;;;;;;;;;;5015952;28;20451;-54
2023/07/09 06:38:29;;;;;;;3.90;3.57;;;;;;;;;;5015986;28;20566;-52
2023/07/09 06:40:57;;;;;;;3.80;3.50;;;;;;;;;;5015925;28;20469;-54
2023/07/09 06:43:23;;;;;;;5.70;3.80;;;;;;;;;;5015684;28;20459;-55
2023/07/09 06:45:51;;;;;;;4.40;4.10;;;;;;;;;;5015804;28;20453;-56
2023/07/09 06:48:20;;;;;;;3.80;3.50;;;;;;;;;;5015882;28;20505;-55
2023/07/09 06:50:47;;;;;;;5.17;4.00;;;;;;;;;;5015596;28;21030;-56
2023/07/09 06:53:14;;;;;;;3.90;3.57;;;;;;;;;;5015746;28;20454;-55
2023/07/09 06:55:41;;;;;;;4.10;3.57;;;;;;;;;;5015289;28;20871;-55
2023/07/09 06:58:08;;;;;;;4.77;3.70;;;;;;;;;;5015653;28;20537;-55
2023/07/09 07:00:35;;;;;;;4.20;3.83;;;;;;;;;;5015232;28;21071;-55
2023/07/09 07:03:02;;;;;;;3.90;3.60;;;;;;;;;;5015403;28;20661;-56
2023/07/09 07:05:31;;;;;;;6.10;4.00;;;;;;;;;;5015351;28;20479;-56
2023/07/09 07:07:58;;;;;;;3.77;3.50;;;;;;;;;;5015319;28;20537;-56
2023/07/09 07:10:26;;;;;;;3.70;3.40;;;;;;;;;;5015159;28;20537;-55
2023/07/09 07:12:53;;;;;;;5.13;4.63;;;;;;;;;;5015201;28;20845;-55
2023/07/09 07:15:20;;;;;;;4.00;3.70;;;;;;;;;;5015215;28;20553;-55
2023/07/09 07:17:47;;;;;;;3.70;3.43;;;;;;;;;;5015152;28;20934;-55
2023/07/09 07:20:15;;;;;;;3.97;3.60;;;;;;;;;;5015140;28;20541;-56
2023/07/09 07:22:43;;;;;;;4.70;4.40;;;;;;;;;;5014980;28;20945;-56
2023/07/09 07:25:11;;;;;;;3.80;3.50;;;;;;;;;;5014979;28;20553;-56
2023/07/09 07:27:38;;;;;;;3.93;3.67;;;;;;;;;;5015087;28;20500;-56
2023/07/09 07:30:08;;;;;;;5.43;3.70;;;;;;;;;;5015119;28;20489;-56
2023/07/09 07:32:35;;;;;;;4.00;3.73;;;;;;;;;;5015004;28;20447;-55
2023/07/09 07:35:02;;;;;;;3.97;3.67;;;;;;;;;;5014267;28;20932;-55
2023/07/09 07:37:29;;;;;;;4.60;4.30;;;;;;;;;;5014815;28;20545;-55
2023/07/09 07:39:57;;;;;;;5.10;3.70;;;;;;;;;;5014535;28;20518;-55
2023/07/09 07:42:25;;;;;;;4.27;3.97;;;;;;;;;;5014870;28;20493;-55
2023/07/09 07:44:52;;;;;;;4.13;3.77;;;;;;;;;;5014380;28;20482;-54
2023/07/09 07:47:19;;;;;;;4.43;4.13;;;;;;;;;;5014608;28;20938;-54
2023/07/09 07:49:46;;;;;;;4.30;4.07;;;;;;;;;;5014575;28;20451;-55
2023/07/09 07:52:13;;;;;;;4.37;4.07;;;;;;;;;;5014211;28;20455;-55
2023/07/09 07:54:40;;;;;;;4.53;4.23;;;;;;;;;;5014469;28;20822;-56
2023/07/09 07:57:09;;;;;;;4.63;4.10;;;;;;;;;;5014009;28;20562;-55
2023/07/09 07:59:35;;;;;;;4.00;3.70;;;;;;;;;;5014167;28;20557;-55
2023/07/09 08:02:02;;;;;;;4.20;3.90;;;;;;;;;;5014097;28;20478;-52
2023/07/09 08:04:29;;;;;;;4.30;4.00;;;;;;;;;;5014106;28;20450;-55
2023/07/09 08:06:58;;;;;;;4.10;3.80;;;;;;;;;;5014204;28;20573;-55
2023/07/09 08:09:25;;;;;;;5.63;4.30;;;;;;;;;;5014252;28;20446;-55
2023/07/09 08:11:52;;;;;;;4.43;4.13;;;;;;;;;;5014234;28;20487;-53
2023/07/09 08:14:20;;;;;;;3.63;3.43;;;;;;;;;;5014099;28;20874;-55
2023/07/09 08:16:47;;;;;;;5.43;4.40;;;;;;;;;;5014010;28;21042;-55
2023/07/09 08:19:14;;;;;;;4.50;4.20;;;;;;;;;;5013862;28;20470;-55
2023/07/09 08:21:41;;;;;;;4.37;3.90;;;;;;;;;;5013890;28;20446;-55
2023/07/09 08:24:08;;;;;;;4.60;4.27;;;;;;;;;;5013815;28;21012;-54
2023/07/09 08:26:37;;;;;;;5.13;4.03;;;;;;;;;;5013776;28;20594;-56
2023/07/09 08:29:04;;;;;;;4.50;4.20;;;;;;;;;;5013753;28;20946;-55
2023/07/09 08:31:33;;;;;;;5.30;4.10;;;;;;;;;;5013687;28;20485;-55
2023/07/09 08:34:00;;;;;;;6.63;4.50;;;;;;;;;;5013616;28;20451;-55
2023/07/09 08:36:27;;;;;;;5.20;4.70;;;;;;;;;;5013801;28;20561;-53
2023/07/09 08:38:54;;;;;;;4.17;3.87;;;;;;;;;;5013769;28;20454;-56
2023/07/09 08:41:31;;;;;;;5.00;4.50;;;;;;;;;;5013552;28;20533;-54
2023/07/09 08:44:04;;;;;;;4.30;4.10;;;;;;;;;;5013683;28;20892;-54
2023/07/09 08:46:36;;;;;;;4.40;4.10;;;;;;;;;;5012822;28;20537;-55
2023/07/09 08:49:03;;;;;;;4.20;3.90;;;;;;;;;;5013631;28;20862;-50
2023/07/09 08:51:34;;;;;;;3.57;3.30;;;;;;;;;;5013545;28;20542;-54
2023/07/09 08:54:02;;;;;;;3.57;3.00;;;;;;;;;;5013482;28;20547;-54
2023/07/09 08:56:32;;;;;;;3.90;3.67;;;;;;;;;;5013289;28;20540;-56
2023/07/09 08:59:00;;;;;;;3.20;3.00;;;;;;;;;;5013226;28;20541;-54
2023/07/09 09:01:30;;;;;;;3.90;3.60;;;;;;;;;;5013556;28;20506;-53
2023/07/09 09:04:00;;;;;;;3.90;3.60;;;;;;;;;;5013330;28;20953;-56
2023/07/09 09:06:28;;;;;;;3.50;3.20;;;;;;;;;;5012906;28;20451;-54
2023/07/09 09:09:00;;;;;;;3.30;2.70;;;;;;;;;;5013272;28;20459;-56
2023/07/09 09:11:31;;;;;;;3.63;3.33;;;;;;;;;;5013018;28;21000;-56
2023/07/09 09:14:02;;;;;;;4.20;3.90;;;;;;;;;;5013331;28;20455;-56
2023/07/09 09:16:31;;;;;;;4.03;3.73;;;;;;;;;;5013145;28;20450;-53
2023/07/09 09:19:00;;;;;;;4.13;3.37;;;;;;;;;;5013022;28;20538;-53
2023/07/09 09:21:30;;;;;;;4.57;4.17;;;;;;;;;;5012956;28;20450;-55
2023/07/09 09:23:59;;;;;;;3.70;3.40;;;;;;;;;;5013038;28;20457;-55
2023/07/09 09:26:28;;;;;;;4.60;4.30;;;;;;;;;;5013087;28;20806;-54
2023/07/09 09:28:55;;;;;;;3.00;2.80;;;;;;;;;;5013299;28;20901;-55
2023/07/09 09:31:22;;;;;;;3.20;3.00;;;;;;;;;;5013099;28;20553;-56
2023/07/09 09:33:50;;;;;;;3.47;3.07;;;;;;;;;;5013016;28;20967;-55
2023/07/09 09:36:21;;;;;;;3.23;3.03;;;;;;;;;;5012958;28;20461;-54
2023/07/09 09:38:50;;;;;;;5.53;3.70;;;;;;;;;;5013246;28;20899;-54
2023/07/09 09:41:18;;;;;;;3.53;3.33;;;;;;;;;;5012906;28;20482;-56
2023/07/09 09:43:46;;;;;;;3.80;3.50;;;;;;;;;;5013008;28;20557;-56
2023/07/09 09:46:18;;;;;;;3.80;3.60;;;;;;;;;;5012976;28;20549;-55
2023/07/09 09:48:46;;;;;;;4.77;3.43;;;;;;;;;;5012751;28;20546;-55
2023/07/09 09:51:13;;;;;;;3.47;3.20;;;;;;;;;;5012830;28;20545;-56
2023/07/09 09:53:44;;;;;;;3.43;3.13;;;;;;;;;;5013009;28;20802;-53
2023/07/09 09:56:14;;;;;;;4.30;3.93;;;;;;;;;;5012675;28;20474;-55
2023/07/09 09:58:41;;;;;;;4.20;3.80;;;;;;;;;;5014531;28;20453;-55
2023/07/09 10:01:15;;;;;;;3.57;3.00;;;;;;;;;;5016507;28;20585;-53
2023/07/09 10:03:44;;;;;;;3.50;3.30;;;;;;;;;;5016627;28;20458;-54
2023/07/09 10:06:14;;;;;;;3.50;3.20;;;;;;;;;;5016592;28;20454;-56
2023/07/09 10:08:49;;;;;;;3.70;3.40;;;;;;;;;;5016344;28;20553;-56
2023/07/09 10:11:19;;;;;;;3.30;3.00;;;;;;;;;;5016613;28;20942;-55
2023/07/09 10:13:47;;;;;;;3.30;3.07;;;;;;;;;;5016285;28;20867;-55
2023/07/09 10:16:19;;;;;;;3.93;3.57;;;;;;;;;;5016234;28;20537;-53
2023/07/09 10:18:51;;;;;;;4.33;3.30;;;;;;;;;;5016398;28;20469;-56
2023/07/09 10:21:24;;;;;;;3.33;3.13;;;;;;;;;;5016394;28;20537;-51
2023/07/09 10:24:03;;;;;;;3.00;2.90;;;;;;;;;;5016257;28;20534;-55
2023/07/09 10:26:32;;;;;;;3.57;3.00;;;;;;;;;;5015949;28;20466;-55
2023/07/09 10:29:06;;;;;;;3.27;3.07;;;;;;;;;;5016280;28;20513;-56
2023/07/09 10:31:39;;;;;;;3.43;3.23;;;;;;;;;;5016172;28;20454;-54
2023/07/09 10:34:08;;;;;;;3.17;2.97;;;;;;;;;;5016113;28;20490;-54
2023/07/09 10:36:43;;;;;;;3.40;3.20;;;;;;;;;;5015913;28;20541;-56
2023/07/09 10:39:14;;;;;;;3.20;3.00;;;;;;;;;;5016083;28;20549;-56
2023/07/09 10:41:42;;;;;;;2.90;2.73;;;;;;;;;;5015742;28;20564;-54
2023/07/09 10:44:12;;;;;;;3.73;3.43;;;;;;;;;;5015874;28;20497;-55
2023/07/09 10:46:40;;;;;;;4.30;3.80;;;;;;;;;;5015772;28;20455;-56
2023/07/09 10:49:11;;;;;;;3.33;3.13;;;;;;;;;;5015784;28;20457;-56
2023/07/09 10:51:39;;;;;;;3.57;3.37;;;;;;;;;;5015840;28;20458;-57
2023/07/09 10:54:09;;;;;;;4.07;3.67;;;;;;;;;;5015732;28;20851;-51
2023/07/09 10:56:38;;;;;;;3.43;3.23;;;;;;;;;;5015705;28;20486;-55
2023/07/09 10:59:08;;;;;;;4.07;3.67;;;;;;;;;;5015614;28;20455;-54
2023/07/09 11:01:39;;;;;;;4.90;3.00;;;;;;;;;;5015429;28;20577;-55
2023/07/09 11:04:07;;;;;;;3.97;3.10;;;;;;;;;;5015386;28;20457;-53
2023/07/09 11:06:35;;;;;;;3.07;2.87;;;;;;;;;;5015500;28;21030;-55
2023/07/09 11:09:03;;;;;;;3.60;3.30;;;;;;;;;;5015118;28;20961;-56
2023/07/09 11:11:34;;;;;;;3.40;3.20;;;;;;;;;;5014675;28;20486;-55
2023/07/09 11:14:05;;;;;;;3.73;3.43;;;;;;;;;;5015249;28;20953;-56
2023/07/09 11:16:34;;;;;;;2.97;2.80;;;;;;;;;;5015139;28;20462;-55
2023/07/09 11:19:02;;;;;;;3.87;3.53;;;;;;;;;;5015301;28;20537;-56
2023/07/09 11:21:29;;;;;;;3.70;3.40;;;;;;;;;;5015153;28;20913;-56
2023/07/09 11:23:59;;;;;;;4.20;3.30;;;;;;;;;;5015091;28;20457;-56
2023/07/09 11:26:27;;;;;;;3.60;3.30;;;;;;;;;;5014986;28;20953;-53
2023/07/09 11:28:56;;;;;;;6.70;3.77;;;;;;;;;;5014979;28;20455;-56
2023/07/09 11:31:25;;;;;;;3.83;3.53;;;;;;;;;;5015065;28;20454;-56
2023/07/09 11:34:02;;;;;;;3.60;3.30;;;;;;;;;;5014974;28;20485;-55
2023/07/09 11:36:30;;;;;;;3.47;3.00;;;;;;;;;;5014925;28;20861;-55
2023/07/09 11:38:57;;;;;;;3.47;3.17;;;;;;;;;;5014743;28;20455;-56
2023/07/09 11:41:27;;;;;;;3.57;3.37;;;;;;;;;;5014462;28;20885;-56
2023/07/09 11:43:54;;;;;;;3.60;3.30;;;;;;;;;;5014854;28;20461;-56
2023/07/09 11:46:23;;;;;;;3.80;3.50;;;;;;;;;;5014892;28;20742;-56
2023/07/09 11:48:52;;;;;;;6.30;4.10;;;;;;;;;;5014585;28;20461;-56
2023/07/09 11:51:23;;;;;;;4.07;3.77;;;;;;;;;;5014517;28;21025;-54
2023/07/09 11:53:52;;;;;;;4.40;3.40;;;;;;;;;;5014471;28;20457;-53
2023/07/09 11:56:20;;;;;;;4.93;3.57;;;;;;;;;;5014479;28;20532;-56
2023/07/09 11:58:50;;;;;;;4.77;3.20;;;;;;;;;;5014400;28;20455;-53
2023/07/09 12:01:18;;;;;;;3.50;3.30;;;;;;;;;;5014292;28;20577;-54
2023/07/09 12:03:46;;;;;;;4.57;3.80;;;;;;;;;;5014222;28;20490;-56
2023/07/09 12:06:18;;;;;;;3.97;3.63;;;;;;;;;;5014113;28;20545;-58
2023/07/09 12:08:46;;;;;;;3.60;3.40;;;;;;;;;;5014409;28;20454;-55
2023/07/09 12:11:20;;;;;;;4.10;3.10;;;;;;;;;;5014063;28;20446;-54
2023/07/09 12:13:47;;;;;;;3.83;3.53;;;;;;;;;;5014021;28;20457;-53
2023/07/09 12:16:21;;;;;;;4.07;3.77;;;;;;;;;;5014103;28;20849;-53
2023/07/09 12:18:48;;;;;;;3.70;3.50;;;;;;;;;;5014013;28;20530;-56
2023/07/09 12:21:17;;;;;;;4.60;4.20;;;;;;;;;;5014016;28;20571;-57
2023/07/09 12:23:44;;;;;;;3.53;3.33;;;;;;;;;;5014011;28;20477;-57
2023/07/09 12:26:13;;;;;;;3.70;3.40;;;;;;;;;;5014181;28;20530;-54
2023/07/09 12:28:39;;;;;;;3.50;3.20;;;;;;;;;;5013951;28;20860;-55
2023/07/09 12:31:12;;;;;;;4.10;3.67;;;;;;;;;;5013832;28;20446;-51
2023/07/09 12:33:39;;;;;;;4.20;3.90;;;;;;;;;;5013620;28;20450;-51
2023/07/09 12:36:07;;;;;;;3.50;3.13;;;;;;;;;;5013890;28;20541;-54
2023/07/09 12:38:43;;;;;;;3.80;3.50;;;;;;;;;;5013779;28;20455;-50
2023/07/09 12:41:17;;;;;;;3.63;3.43;;;;;;;;;;5013933;28;20478;-54
2023/07/09 12:43:44;;;;;;;3.03;2.77;;;;;;;;;;5013538;28;20451;-49
2023/07/09 12:46:11;;;;;;;3.23;3.00;;;;;;;;;;5013239;28;20558;-52
2023/07/09 12:48:38;;;;;;;3.50;3.20;;;;;;;;;;5013480;28;21061;-53
2023/07/09 12:51:08;;;;;;;4.10;3.80;;;;;;;;;;5013411;28;20541;-51
2023/07/09 12:53:38;;;;;;;3.67;3.27;;;;;;;;;;5013425;28;20541;-51
2023/07/09 12:56:12;;;;;;;4.60;4.30;;;;;;;;;;5013196;28;20486;-50
2023/07/09 12:58:39;;;;;;;3.67;3.37;;;;;;;;;;5013305;28;20450;-53
2023/07/09 13:01:07;;;;;;;5.40;3.40;;;;;;;;;;5013462;28;20557;-52
2023/07/09 13:03:35;;;;;;;5.40;3.67;;;;;;;;;;5013372;28;20549;-54
2023/07/09 13:06:03;;;;;;;3.97;3.73;;;;;;;;;;5013335;28;20458;-51
2023/07/09 13:08:31;;;;;;;3.60;3.30;;;;;;;;;;5013245;28;20450;-53
2023/07/09 13:11:01;;;;;;;4.40;3.37;;;;;;;;;;5013147;28;20542;-54
2023/07/09 13:13:28;;;;;;;3.90;3.70;;;;;;;;;;5013304;28;20866;-55
2023/07/09 13:15:58;;;;;;;3.80;3.50;;;;;;;;;;5013485;28;20570;-55
2023/07/09 13:18:26;;;;;;;4.73;4.20;;;;;;;;;;5013068;28;20450;-56
2023/07/09 13:20:54;;;;;;;3.73;3.43;;;;;;;;;;5012955;28;20561;-54
2023/07/09 13:23:22;;;;;;;3.93;3.57;;;;;;;;;;5013121;28;20802;-54
2023/07/09 13:25:49;;;;;;;3.80;3.60;;;;;;;;;;5013067;28;20537;-54
2023/07/09 13:28:21;;;;;;;3.50;3.30;;;;;;;;;;5013250;28;20454;-51
2023/07/09 13:30:49;;;;;;;4.47;3.23;;;;;;;;;;5013118;28;20531;-54
2023/07/09 13:33:17;;;;;;;4.20;3.80;;;;;;;;;;5014319;28;20553;-54
2023/07/09 13:35:44;;;;;;;3.80;3.60;;;;;;;;;;5017021;28;20855;-56
2023/07/09 13:38:15;;;;;;;12.73;3.60;;;;;;;;;;5016923;28;20504;-56
2023/07/09 13:40:43;;;;;;;4.47;3.60;;;;;;;;;;5017147;28;20894;-57
2023/07/09 13:43:13;;;;;;;4.00;3.70;;;;;;;;;;5017220;28;20447;-56
2023/07/09 13:45:41;;;;;;;6.90;3.50;;;;;;;;;;5016902;28;20453;-55
2023/07/09 13:48:13;;;;;;;5.67;3.70;;;;;;;;;;5016939;28;21005;-56
2023/07/09 13:50:40;;;;;;;4.63;4.20;;;;;;;;;;5016769;28;20450;-57
2023/07/09 13:53:11;;;;;;;3.50;3.30;;;;;;;;;;5017006;28;20529;-56
2023/07/09 13:55:38;;;;;;;4.63;4.23;;;;;;;;;;5016647;28;20887;-56
2023/07/09 13:58:05;;;;;;;4.27;3.97;;;;;;;;;;5016979;28;20450;-56
2023/07/09 14:00:31;;;;;;;3.57;3.30;;;;;;;;;;5016815;28;20451;-56
2023/07/09 14:03:00;;;;;;;3.97;3.77;;;;;;;;;;5016558;28;20572;-55
2023/07/09 14:05:27;;;;;;;4.07;3.60;;;;;;;;;;5016738;28;20549;-56
2023/07/09 14:07:54;;;;;;;3.70;3.40;;;;;;;;;;5016642;28;20482;-56
2023/07/09 14:10:21;;;;;;;3.90;3.60;;;;;;;;;;5016547;28;20447;-54
2023/07/09 14:12:48;;;;;;;3.90;3.60;;;;;;;;;;5016505;28;20541;-55
2023/07/09 14:15:17;;;;;;;4.27;3.97;;;;;;;;;;5016385;28;20450;-56
2023/07/09 14:17:44;;;;;;;4.70;4.40;;;;;;;;;;5016110;28;20513;-55
2023/07/09 14:20:14;;;;;;;3.73;3.43;;;;;;;;;;5016554;28;20454;-54
2023/07/09 14:22:42;;;;;;;4.10;3.80;;;;;;;;;;5016102;28;20482;-56
2023/07/09 14:25:11;;;;;;;4.83;4.03;;;;;;;;;;5016297;28;20458;-53
2023/07/09 14:27:38;;;;;;;4.20;3.80;;;;;;;;;;5016149;28;20484;-54
2023/07/09 14:30:06;;;;;;;4.37;4.07;;;;;;;;;;5016037;28;20457;-56
2023/07/09 14:32:34;;;;;;;3.73;3.33;;;;;;;;;;5016299;28;20537;-57
2023/07/09 14:35:02;;;;;;;3.90;3.70;;;;;;;;;;5015927;28;20450;-56
2023/07/09 14:37:30;;;;;;;4.00;3.70;;;;;;;;;;5016072;28;20537;-56
2023/07/09 14:39:57;;;;;;;6.07;3.67;;;;;;;;;;5016122;28;20450;-57
2023/07/09 14:42:24;;;;;;;4.27;3.97;;;;;;;;;;5015888;28;20624;-56
2023/07/09 14:44:52;;;;;;;4.07;3.77;;;;;;;;;;5014455;28;20478;-56
2023/07/09 14:47:20;;;;;;;3.73;3.50;;;;;;;;;;5015960;28;20541;-56
2023/07/09 14:49:47;;;;;;;3.73;3.43;;;;;;;;;;5015778;28;20490;-55